Time;durP1;ratioP1;P1;durP2;ratioP2;P2;SDS_P1;SDS_P2;PMS_P1;PMS_P2;Temp;Humidity;BMP_temperature;BMP_pressure;BME280_temperature;BME280_humidity;BME280_pressure;Samples;Min_cycle;Max_cycle;Signal;HPM_P1;HPM_P2
2021/05/13 00:00:45;;;;;;;18.80;13.53;;;12.90;99.90;;;;;;4993376;28;20508;-89
2021/05/13 00:03:12;;;;;;;21.47;14.70;;;;;;;;;;4993613;28;20451;-86
2021/05/13 00:05:38;;;;;;;23.97;16.37;;;12.80;99.90;;;;;;4993620;28;20464;-89
2021/05/13 00:08:05;;;;;;;21.87;15.27;;;12.90;99.90;;;;;;5008547;28;20934;-88
2021/05/13 00:10:31;;;;;;;27.53;16.73;;;12.80;99.90;;;;;;4996746;28;20662;-89
2021/05/13 00:13:01;;;;;;;24.70;16.07;;;12.90;99.90;;;;;;5012160;28;20430;-91
2021/05/13 00:15:37;;;;;;;24.20;15.70;;;12.90;99.90;;;;;;4997112;28;20225;-89
2021/05/13 00:18:03;;;;;;;23.07;14.53;;;12.90;99.90;;;;;;4996550;28;20848;-88
2021/05/13 00:20:33;;;;;;;27.77;16.53;;;12.90;99.90;;;;;;4995570;28;20422;-86
2021/05/13 00:22:59;;;;;;;22.67;15.70;;;12.90;99.90;;;;;;4996874;28;20505;-89
2021/05/13 00:25:25;;;;;;;28.20;16.60;;;12.90;99.90;;;;;;4996541;28;20545;-87
2021/05/13 00:27:52;;;;;;;24.63;15.63;;;12.80;99.90;;;;;;4996515;28;20681;-87
2021/05/13 00:30:18;;;;;;;25.93;15.73;;;12.80;99.90;;;;;;5006603;28;20782;-89
2021/05/13 00:32:44;;;;;;;25.30;16.50;;;12.80;99.90;;;;;;4978557;28;20455;-91
2021/05/13 00:35:12;;;;;;;26.27;17.83;;;12.80;99.90;;;;;;4998311;28;20467;-86
2021/05/13 00:37:38;;;;;;;26.87;17.07;;;12.80;99.90;;;;;;5002587;28;20430;-85
2021/05/13 00:40:06;;;;;;;29.30;15.93;;;12.80;99.90;;;;;;4993096;28;20418;-88
2021/05/13 00:42:31;;;;;;;25.03;16.30;;;12.80;99.90;;;;;;4992399;28;20317;-86
2021/05/13 00:44:57;;;;;;;28.53;16.53;;;12.80;99.90;;;;;;4992829;28;21064;-85
2021/05/13 00:47:25;;;;;;;22.70;14.90;;;12.80;99.90;;;;;;4994713;28;20214;-84
2021/05/13 00:49:51;;;;;;;26.60;16.63;;;12.80;99.90;;;;;;4993818;28;20174;-86
2021/05/13 00:52:22;;;;;;;27.47;14.30;;;12.70;99.90;;;;;;4993383;28;20407;-84
2021/05/13 00:54:48;;;;;;;30.10;17.50;;;12.70;99.90;;;;;;4993674;28;20484;-88
2021/05/13 00:57:14;;;;;;;21.03;14.17;;;12.70;99.90;;;;;;4993219;28;20425;-87
2021/05/13 00:59:44;;;;;;;28.10;16.00;;;12.70;99.90;;;;;;4993851;28;20417;-85
2021/05/13 01:02:10;;;;;;;26.50;16.70;;;12.70;99.90;;;;;;4993368;28;20418;-85
2021/05/13 01:04:36;;;;;;;26.23;15.47;;;12.60;99.90;;;;;;4993410;28;20434;-85
2021/05/13 01:07:02;;;;;;;27.87;16.67;;;12.60;99.90;;;;;;4993352;28;20981;-84
2021/05/13 01:09:31;;;;;;;23.17;15.30;;;12.70;99.90;;;;;;4992141;28;20266;-83
2021/05/13 01:12:01;;;;;;;28.90;17.33;;;12.70;99.90;;;;;;4991993;28;20419;-86
2021/05/13 01:19:37;;;;;;;24.50;14.97;;;12.60;99.90;;;;;;4992385;28;20462;-88
2021/05/13 01:22:03;;;;;;;25.33;17.47;;;12.60;99.90;;;;;;4991723;28;20441;-85
2021/05/13 01:24:29;;;;;;;27.23;18.10;;;12.60;99.90;;;;;;5007975;28;21017;-85
2021/05/13 01:26:55;;;;;;;27.83;17.80;;;12.70;99.90;;;;;;4990993;28;20181;-87
2021/05/13 01:29:23;;;;;;;22.90;15.07;;;12.60;99.90;;;;;;4992932;28;20411;-87
2021/05/13 01:31:50;;;;;;;28.80;17.50;;;12.70;99.90;;;;;;4992760;28;20410;-85
2021/05/13 01:34:16;;;;;;;25.07;16.60;;;12.70;99.90;;;;;;4993071;28;20418;-84
2021/05/13 01:36:42;;;;;;;27.10;16.90;;;12.70;99.90;;;;;;4993038;28;20426;-84
2021/05/13 01:39:10;;;;;;;25.67;15.20;;;12.70;99.90;;;;;;4992951;28;20460;-86
2021/05/13 01:41:37;;;;;;;27.33;16.47;;;12.70;99.90;;;;;;4993014;28;20432;-89
2021/05/13 01:44:03;;;;;;;25.47;16.70;;;12.80;99.90;;;;;;4996377;28;20410;-88
2021/05/13 01:46:29;;;;;;;21.40;15.50;;;12.70;99.90;;;;;;4993076;28;21005;-87
2021/05/13 01:48:55;;;;;;;27.53;15.60;;;12.70;99.90;;;;;;4993485;28;20410;-90
2021/05/13 01:51:20;;;;;;;22.37;14.93;;;12.70;99.90;;;;;;4994554;28;20210;-86
2021/05/13 01:53:46;;;;;;;19.97;13.73;;;12.70;99.90;;;;;;4993124;28;20244;-86
2021/05/13 01:56:13;;;;;;;24.33;15.10;;;12.80;99.90;;;;;;4992170;28;20186;-83
2021/05/13 01:58:39;;;;;;;22.30;15.83;;;12.70;99.90;;;;;;4992578;28;20407;-84
2021/05/13 02:01:10;;;;;;;22.23;14.53;;;12.70;99.90;;;;;;4992650;28;20426;-86
2021/05/13 02:03:36;;;;;;;18.77;13.80;;;12.70;99.90;;;;;;4989905;28;20977;-84
2021/05/13 02:06:03;;;;;;;20.20;13.10;;;12.70;99.90;;;;;;4992586;28;20497;-83
2021/05/13 02:08:28;;;;;;;20.83;14.70;;;12.80;99.90;;;;;;4991979;28;20410;-83
2021/05/13 02:10:54;;;;;;;22.17;13.90;;;12.80;99.90;;;;;;4991382;28;20442;-85
2021/05/13 02:13:20;;;;;;;18.73;12.10;;;12.80;99.90;;;;;;4992115;28;20184;-85
2021/05/13 02:15:45;;;;;;;18.27;13.93;;;12.80;99.90;;;;;;4992558;28;20183;-84
2021/05/13 02:18:11;;;;;;;21.90;14.27;;;12.80;99.90;;;;;;4992094;28;20256;-83
2021/05/13 02:20:37;;;;;;;16.07;13.03;;;12.90;99.90;;;;;;5007247;28;20654;-85
2021/05/13 02:23:03;;;;;;;19.80;13.27;;;12.80;99.90;;;;;;4992363;28;20179;-88
2021/05/13 02:25:31;;;;;;;16.93;12.50;;;12.80;99.90;;;;;;4991988;28;20682;-84
2021/05/13 02:28:01;;;;;;;21.80;15.03;;;12.80;99.90;;;;;;4990983;28;20792;-84
2021/05/13 02:30:27;;;;;;;21.40;14.30;;;12.70;99.90;;;;;;4992135;28;20445;-86
2021/05/13 02:32:54;;;;;;;20.20;14.07;;;12.70;99.90;;;;;;4990826;28;20414;-83
2021/05/13 02:35:21;;;;;;;23.60;13.83;;;12.70;99.90;;;;;;4994494;28;20497;-83
2021/05/13 02:37:47;;;;;;;22.50;14.97;;;12.70;99.90;;;;;;4990704;28;20988;-84
2021/05/13 02:40:15;;;;;;;23.20;14.10;;;12.70;99.90;;;;;;4992764;28;20497;-85
2021/05/13 02:42:41;;;;;;;22.73;13.67;;;12.70;99.90;;;;;;4993401;28;20440;-87
2021/05/13 02:45:08;;;;;;;22.50;13.47;;;12.70;99.90;;;;;;4995816;28;20992;-86
2021/05/13 02:47:34;;;;;;;22.23;15.57;;;12.70;99.90;;;;;;4990837;28;20839;-85
2021/05/13 02:49:59;;;;;;;25.50;16.47;;;12.70;99.90;;;;;;4992193;28;20510;-84
2021/05/13 02:52:25;;;;;;;23.80;14.70;;;12.60;99.90;;;;;;4992264;28;20168;-84
2021/05/13 02:54:51;;;;;;;20.30;14.67;;;12.60;99.90;;;;;;4992321;28;20234;-83
2021/05/13 02:57:17;;;;;;;23.33;14.80;;;12.70;99.90;;;;;;4992059;28;20185;-84
2021/05/13 02:59:47;;;;;;;27.00;15.63;;;12.70;99.90;;;;;;4991850;28;20429;-84
2021/05/13 03:02:14;;;;;;;24.97;15.43;;;12.60;99.90;;;;;;4992282;28;20199;-86
2021/05/13 03:04:41;;;;;;;22.73;13.83;;;12.50;99.90;;;;;;4992123;28;20925;-85
2021/05/13 03:07:07;;;;;;;22.87;14.70;;;12.50;99.90;;;;;;4992121;28;20426;-84
2021/05/13 03:09:35;;;;;;;20.97;15.23;;;12.60;99.90;;;;;;4992180;28;20417;-84
2021/05/13 03:12:01;;;;;;;25.30;15.20;;;12.40;99.90;;;;;;5006462;28;20419;-85
2021/05/13 03:14:26;;;;;;;30.60;16.33;;;12.50;99.90;;;;;;4991944;28;20414;-84
2021/05/13 03:16:52;;;;;;;22.83;15.70;;;12.50;99.90;;;;;;4992027;28;20175;-85
2021/05/13 03:19:24;;;;;;;26.93;15.20;;;12.50;99.90;;;;;;5006514;28;20189;-84
2021/05/13 03:21:53;;;;;;;28.57;16.17;;;12.40;99.90;;;;;;4992051;28;20172;-85
2021/05/13 03:27:11;;;;;;;21.93;14.80;;;12.50;99.90;;;;;;4989277;28;20478;-85
2021/05/13 03:29:37;;;;;;;23.00;13.83;;;12.50;99.90;;;;;;4991892;28;20877;-85
2021/05/13 03:32:03;;;;;;;20.23;14.27;;;12.60;99.90;;;;;;4991950;28;20952;-85
2021/05/13 03:34:29;;;;;;;21.10;13.43;;;12.60;99.90;;;;;;4990491;28;20665;-85
2021/05/13 03:36:54;;;;;;;25.30;17.20;;;12.60;99.90;;;;;;4991960;28;20433;-85
2021/05/13 03:39:20;;;;;;;28.37;15.60;;;12.60;99.90;;;;;;4990464;28;20178;-85
2021/05/13 03:41:46;;;;;;;24.03;14.53;;;12.60;99.90;;;;;;5020865;28;20993;-85
2021/05/13 03:44:11;;;;;;;22.67;16.60;;;12.60;99.90;;;;;;4993409;28;20172;-85
2021/05/13 03:46:37;;;;;;;25.60;16.70;;;12.60;99.90;;;;;;4994238;28;20293;-85
2021/05/13 03:49:03;;;;;;;26.60;16.80;;;12.60;99.90;;;;;;4995648;28;20164;-86
2021/05/13 03:51:28;;;;;;;26.83;17.73;;;12.60;99.90;;;;;;5010426;28;20649;-85
2021/05/13 03:53:54;;;;;;;21.93;15.03;;;12.60;99.90;;;;;;5007685;28;20212;-85
2021/05/13 03:56:20;;;;;;;16.50;12.90;;;12.70;99.90;;;;;;5010320;28;20620;-85
2021/05/13 03:58:57;;;;;;;19.93;14.33;;;12.70;99.90;;;;;;5026797;28;20414;-84
2021/05/13 04:03:54;;;;;;;24.27;15.10;;;12.70;99.90;;;;;;4992733;28;20420;-84
2021/05/13 04:06:20;;;;;;;24.77;16.03;;;12.80;99.90;;;;;;5010187;28;20561;-85
2021/05/13 04:08:49;;;;;;;23.73;16.97;;;12.80;99.90;;;;;;4995257;28;20262;-85
2021/05/13 04:11:15;;;;;;;23.10;14.97;;;12.70;99.90;;;;;;4992293;28;20182;-85
2021/05/13 04:13:41;;;;;;;22.77;16.83;;;12.60;99.90;;;;;;4995135;28;20410;-85
2021/05/13 04:16:08;;;;;;;22.23;16.50;;;12.60;99.90;;;;;;5010246;28;20436;-85
2021/05/13 04:18:33;;;;;;;22.70;14.97;;;12.50;99.90;;;;;;4995025;28;20195;-85
2021/05/13 04:20:59;;;;;;;24.30;15.80;;;12.50;99.90;;;;;;4994992;28;20457;-84
2021/05/13 04:23:25;;;;;;;20.30;14.30;;;12.50;99.90;;;;;;4993728;28;20185;-85
2021/05/13 04:25:50;;;;;;;28.77;17.03;;;12.50;99.90;;;;;;5011052;28;20218;-85
2021/05/13 04:28:16;;;;;;;21.10;15.57;;;12.50;99.90;;;;;;5015913;28;20174;-85
2021/05/13 04:30:42;;;;;;;27.13;17.70;;;12.50;99.90;;;;;;5015787;28;20186;-85
2021/05/13 04:33:07;;;;;;;24.90;14.83;;;12.60;99.90;;;;;;5014459;28;20204;-85
2021/05/13 04:35:33;;;;;;;27.10;16.97;;;12.60;99.90;;;;;;5015607;28;20162;-85
2021/05/13 04:37:59;;;;;;;25.57;16.50;;;12.60;99.90;;;;;;5015737;28;20175;-85
2021/05/13 04:40:24;;;;;;;28.37;17.67;;;12.70;99.90;;;;;;4997766;28;20189;-85
2021/05/13 04:42:50;;;;;;;31.07;17.10;;;12.70;99.90;;;;;;4994731;28;20183;-86
2021/05/13 04:45:16;;;;;;;25.60;17.40;;;12.80;99.90;;;;;;4998098;28;20599;-85
2021/05/13 04:50:08;;;;;;;25.50;15.63;;;12.80;99.90;;;;;;4994512;28;20182;-83
2021/05/13 04:52:36;;;;;;;32.10;19.53;;;12.80;99.90;;;;;;4994849;28;20174;-85
2021/05/13 04:55:03;;;;;;;24.50;17.73;;;12.80;99.90;;;;;;4995185;28;20431;-85
2021/05/13 04:57:29;;;;;;;23.67;15.60;;;12.90;99.90;;;;;;4994178;28;20422;-84
2021/05/13 04:59:55;;;;;;;23.13;16.23;;;13.00;99.90;;;;;;4995817;28;20572;-84
2021/05/13 05:02:21;;;;;;;23.37;15.70;;;13.10;99.90;;;;;;4994565;28;20182;-84
2021/05/13 05:04:47;;;;;;;23.40;18.03;;;13.10;99.90;;;;;;4994422;28;20481;-85
2021/05/13 05:07:13;;;;;;;23.87;16.00;;;13.20;99.90;;;;;;4995688;28;20262;-85
2021/05/13 05:09:39;;;;;;;25.00;16.07;;;13.20;99.90;;;;;;4995707;28;20501;-85
2021/05/13 05:12:07;;;;;;;24.70;15.63;;;13.20;99.90;;;;;;4994064;28;20534;-85
2021/05/13 05:14:32;;;;;;;21.70;15.80;;;13.20;99.90;;;;;;4995518;28;20562;-84
2021/05/13 05:16:58;;;;;;;23.83;15.60;;;13.30;99.90;;;;;;5010529;28;20438;-84
2021/05/13 05:19:24;;;;;;;24.97;15.50;;;13.30;99.90;;;;;;4995571;28;20180;-84
2021/05/13 05:21:50;;;;;;;22.30;15.93;;;13.40;99.90;;;;;;4995634;28;20536;-84
2021/05/13 05:24:16;;;;;;;22.27;15.00;;;13.30;99.90;;;;;;4995346;28;20534;-85
2021/05/13 05:26:42;;;;;;;21.00;14.87;;;13.30;99.90;;;;;;5022051;28;20482;-84
2021/05/13 05:29:08;;;;;;;20.63;13.53;;;13.40;99.90;;;;;;5003096;28;20193;-84
2021/05/13 05:31:33;;;;;;;21.30;15.47;;;13.40;99.90;;;;;;4993830;28;20445;-84
2021/05/13 05:33:59;;;;;;;22.93;14.97;;;13.40;99.90;;;;;;4996481;28;20181;-85
2021/05/13 05:36:27;;;;;;;22.53;14.10;;;13.30;99.90;;;;;;5004184;28;20186;-86
2021/05/13 05:38:55;;;;;;;20.00;14.97;;;13.40;99.90;;;;;;5004609;28;20186;-85
2021/05/13 05:41:22;;;;;;;19.27;14.50;;;13.40;99.90;;;;;;5003346;28;20437;-84
2021/05/13 05:43:47;;;;;;;17.80;12.17;;;13.40;99.90;;;;;;5001045;28;20411;-86
2021/05/13 05:46:13;;;;;;;22.40;13.90;;;13.50;99.90;;;;;;5003260;28;20524;-85
2021/05/13 05:48:38;;;;;;;17.27;13.23;;;13.60;99.90;;;;;;5005023;28;20241;-85
2021/05/13 05:51:05;;;;;;;16.80;12.90;;;13.50;99.90;;;;;;5002763;28;20189;-86
2021/05/13 05:53:31;;;;;;;22.50;12.50;;;13.60;99.90;;;;;;5002163;28;20218;-85
2021/05/13 05:55:56;;;;;;;16.63;12.90;;;13.80;99.90;;;;;;5002388;28;20457;-85
2021/05/13 05:58:22;;;;;;;15.40;10.60;;;13.70;99.90;;;;;;5002580;28;20786;-86
2021/05/13 06:00:48;;;;;;;20.93;12.17;;;13.70;99.90;;;;;;5005070;28;20224;-87
2021/05/13 06:03:14;;;;;;;16.47;12.60;;;13.80;99.90;;;;;;5001158;28;20176;-86
2021/05/13 06:05:40;;;;;;;22.10;11.80;;;13.80;99.90;;;;;;5004611;28;20470;-86
2021/05/13 06:08:05;;;;;;;16.77;11.40;;;13.80;99.90;;;;;;5002712;28;20593;-85
2021/05/13 06:10:31;;;;;;;16.60;12.27;;;13.80;99.90;;;;;;5004156;28;20200;-87
2021/05/13 06:12:57;;;;;;;15.83;11.30;;;13.80;99.90;;;;;;5003551;28;20183;-85
2021/05/13 06:15:23;;;;;;;17.93;11.67;;;13.70;99.90;;;;;;5000815;28;20787;-87
2021/05/13 06:17:49;;;;;;;15.80;10.77;;;13.60;99.90;;;;;;5004593;28;20620;-86
2021/05/13 06:20:26;;;;;;;18.00;12.60;;;13.60;99.90;;;;;;5002214;28;20428;-86
2021/05/13 06:22:52;;;;;;;15.93;11.30;;;13.60;99.90;;;;;;5015951;28;20540;-85
2021/05/13 06:25:19;;;;;;;15.17;10.93;;;13.60;99.90;;;;;;5002060;28;20454;-88
2021/05/13 06:27:45;;;;;;;18.03;10.57;;;13.60;99.90;;;;;;4998026;28;20192;-87
2021/05/13 06:30:14;;;;;;;17.20;11.60;;;13.60;99.90;;;;;;5003074;28;20489;-84
2021/05/13 06:32:40;;;;;;;18.43;11.43;;;13.60;99.90;;;;;;5000418;28;20796;-86
2021/05/13 06:35:06;;;;;;;15.07;10.87;;;13.60;99.90;;;;;;5015606;28;20509;-85
2021/05/13 06:37:32;;;;;;;14.60;11.20;;;13.60;99.90;;;;;;5000347;28;20421;-84
2021/05/13 06:39:57;;;;;;;15.63;11.67;;;13.60;99.90;;;;;;5001448;28;20474;-85
2021/05/13 06:42:23;;;;;;;18.80;11.47;;;13.80;99.90;;;;;;5003363;28;20460;-84
2021/05/13 06:44:48;;;;;;;18.50;12.23;;;13.90;99.90;;;;;;5003642;28;20168;-84
2021/05/13 06:47:14;;;;;;;17.60;11.70;;;14.00;99.90;;;;;;5000899;28;20252;-85
2021/05/13 06:49:40;;;;;;;16.00;10.70;;;14.00;99.90;;;;;;5003937;28;20196;-85
2021/05/13 06:52:06;;;;;;;18.90;12.60;;;14.00;99.90;;;;;;5003262;28;20664;-85
2021/05/13 06:54:32;;;;;;;16.97;11.03;;;14.00;99.90;;;;;;5001460;28;20529;-86
2021/05/13 06:56:58;;;;;;;18.07;12.10;;;14.10;99.90;;;;;;5009499;28;20418;-87
2021/05/13 06:59:25;;;;;;;17.00;11.97;;;14.20;99.90;;;;;;5012112;28;20277;-83
2021/05/13 07:01:54;;;;;;;15.60;11.37;;;14.30;99.90;;;;;;5013283;28;20407;-84
2021/05/13 07:04:20;;;;;;;13.23;9.40;;;14.40;99.90;;;;;;5013044;28;20430;-83
2021/05/13 07:06:46;;;;;;;16.20;11.20;;;14.40;99.90;;;;;;5013224;28;20481;-83
2021/05/13 07:09:12;;;;;;;13.03;9.67;;;14.40;99.90;;;;;;5013206;28;20418;-83
2021/05/13 07:11:37;;;;;;;13.33;9.90;;;14.50;99.90;;;;;;5012426;28;20419;-83
2021/05/13 07:14:03;;;;;;;15.10;10.53;;;14.70;99.90;;;;;;5013065;28;20171;-83
2021/05/13 07:16:30;;;;;;;14.40;9.47;;;14.80;99.90;;;;;;5013221;28;20213;-83
2021/05/13 07:18:55;;;;;;;16.57;9.20;;;14.80;99.90;;;;;;5012647;28;20410;-83
2021/05/13 07:21:21;;;;;;;15.10;8.83;;;14.80;99.90;;;;;;5013056;28;20426;-83
2021/05/13 07:23:47;;;;;;;15.40;9.33;;;14.80;99.90;;;;;;5013016;28;20169;-83
2021/05/13 07:26:13;;;;;;;15.77;9.67;;;14.80;99.90;;;;;;5012714;28;20222;-83
2021/05/13 07:28:40;;;;;;;16.07;10.03;;;14.80;99.90;;;;;;5012630;28;20203;-84
2021/05/13 07:31:07;;;;;;;19.97;11.33;;;14.60;99.90;;;;;;5012901;28;20705;-84
2021/05/13 07:33:32;;;;;;;19.20;11.30;;;14.60;99.90;;;;;;5013073;28;20891;-84
2021/05/13 07:35:58;;;;;;;18.97;11.63;;;14.30;99.90;;;;;;5013078;28;20423;-84
2021/05/13 07:38:24;;;;;;;16.30;11.13;;;14.30;99.90;;;;;;5012832;28;20185;-83
2021/05/13 07:40:50;;;;;;;17.30;10.43;;;14.20;99.90;;;;;;5012622;28;20546;-83
2021/05/13 07:43:16;;;;;;;15.90;11.43;;;14.30;99.90;;;;;;5012954;28;20431;-83
2021/05/13 07:45:44;;;;;;;16.70;11.10;;;14.30;99.90;;;;;;5012368;28;21068;-83
2021/05/13 07:48:11;;;;;;;21.40;12.20;;;14.30;99.90;;;;;;5012880;28;20179;-83
2021/05/13 07:50:36;;;;;;;18.50;12.20;;;14.10;99.90;;;;;;5011618;28;20410;-83
2021/05/13 07:53:03;;;;;;;15.43;10.17;;;14.20;99.90;;;;;;5012604;28;20469;-83
2021/05/13 07:55:29;;;;;;;16.03;10.90;;;14.20;99.90;;;;;;5012505;28;20168;-83
2021/05/13 07:57:54;;;;;;;17.70;11.63;;;14.20;99.90;;;;;;5012758;28;20415;-84
2021/05/13 08:00:21;;;;;;;21.67;12.17;;;14.20;99.90;;;;;;4986264;28;20268;-83
2021/05/13 08:02:46;;;;;;;18.20;9.30;;;14.20;99.90;;;;;;5003182;28;20218;-85
2021/05/13 08:05:12;;;;;;;20.30;11.47;;;14.20;99.90;;;;;;5001242;28;20491;-84
2021/05/13 08:07:38;;;;;;;17.43;10.77;;;14.20;99.90;;;;;;5002562;28;20184;-83
2021/05/13 08:10:06;;;;;;;17.50;10.13;;;14.10;99.90;;;;;;5001839;28;20252;-85
2021/05/13 08:12:31;;;;;;;16.70;11.17;;;14.20;99.90;;;;;;5003171;28;20605;-84
2021/05/13 08:14:57;;;;;;;19.17;11.93;;;14.20;99.90;;;;;;5001954;28;20503;-84
2021/05/13 08:17:22;;;;;;;16.53;10.67;;;14.20;99.90;;;;;;5001640;28;20190;-84
2021/05/13 08:19:48;;;;;;;13.53;9.10;;;14.40;99.90;;;;;;5000881;28;20179;-84
2021/05/13 08:22:14;;;;;;;19.00;11.83;;;14.40;99.90;;;;;;5003996;28;20180;-84
2021/05/13 08:24:39;;;;;;;14.80;10.60;;;14.40;99.90;;;;;;5001768;28;20212;-84
2021/05/13 08:27:05;;;;;;;14.80;9.90;;;14.30;99.90;;;;;;4999596;28;20679;-85
2021/05/13 08:29:31;;;;;;;13.97;9.00;;;14.50;99.90;;;;;;5002919;28;20629;-84
2021/05/13 08:31:58;;;;;;;16.90;9.90;;;14.60;99.90;;;;;;5019652;28;20214;-84
2021/05/13 08:34:23;;;;;;;15.10;9.33;;;14.60;99.90;;;;;;5010053;28;20414;-85
2021/05/13 08:36:49;;;;;;;15.30;8.63;;;14.60;99.90;;;;;;5014834;28;20423;-85
2021/05/13 08:39:15;;;;;;;13.47;9.93;;;14.50;99.90;;;;;;5016111;28;20175;-84
2021/05/13 08:41:41;;;;;;;16.10;9.60;;;14.60;99.90;;;;;;5015567;28;20180;-85
2021/05/13 08:44:08;;;;;;;13.27;8.00;;;14.60;99.90;;;;;;5015440;28;20175;-85
2021/05/13 08:46:36;;;;;;;15.77;9.00;;;14.60;99.90;;;;;;5015538;28;20211;-84
2021/05/13 08:49:02;;;;;;;15.23;9.50;;;14.70;99.90;;;;;;5027385;28;20431;-87
2021/05/13 08:51:27;;;;;;;14.40;10.50;;;14.80;99.90;;;;;;4995167;28;20445;-88
2021/05/13 08:53:57;;;;;;;13.93;9.47;;;14.90;99.90;;;;;;4993597;28;20459;-85
2021/05/13 08:56:25;;;;;;;14.47;9.17;;;15.10;99.90;;;;;;4995121;28;20187;-85
2021/05/13 08:58:51;;;;;;;12.20;8.77;;;15.20;99.90;;;;;;5005045;28;20422;-84
2021/05/13 09:01:18;;;;;;;11.70;8.80;;;15.30;99.90;;;;;;5015682;28;20752;-85
2021/05/13 09:03:47;;;;;;;13.33;8.67;;;15.40;99.90;;;;;;5015703;28;20173;-85
2021/05/13 09:06:44;;;;;;;10.00;7.33;;;15.60;99.90;;;;;;5015501;28;20478;-85
2021/05/13 09:09:18;;;;;;;10.77;7.37;;;15.70;99.90;;;;;;5014691;28;20532;-87
2021/05/13 09:11:51;;;;;;;10.00;6.90;;;15.90;99.90;;;;;;5015629;28;20414;-86
2021/05/13 09:14:21;;;;;;;11.60;8.10;;;16.40;99.90;;;;;;5030939;28;20913;-87
2021/05/13 09:16:49;;;;;;;7.10;5.03;;;16.70;99.90;;;;;;5015459;28;20406;-86
2021/05/13 09:19:19;;;;;;;9.87;6.00;;;17.10;56.80;;;;;;5030525;28;20425;-87
2021/05/13 09:21:59;;;;;;;6.50;5.43;;;17.20;28.70;;;;;;5015361;28;20418;-84
2021/05/13 09:24:47;;;;;;;6.03;5.10;;;17.10;8.70;;;;;;5008163;28;20514;-85
2021/05/13 09:27:23;;;;;;;8.33;6.43;;;17.10;17.30;;;;;;4976093;28;20518;-83
2021/05/13 09:30:07;;;;;;;7.07;5.20;;;16.90;22.80;;;;;;4989806;28;20564;-84
2021/05/13 09:32:33;;;;;;;6.70;4.90;;;16.90;35.80;;;;;;4978574;28;21323;-83
2021/05/13 09:35:09;;;;;;;6.77;5.60;;;17.00;45.60;;;;;;4977931;28;20429;-85
2021/05/13 09:37:43;;;;;;;5.83;3.97;;;17.00;39.70;;;;;;4995245;28;20415;-85
2021/05/13 09:40:10;;;;;;;5.80;4.17;;;16.90;28.00;;;;;;4995050;28;20497;-84
2021/05/13 09:42:35;;;;;;;5.90;4.50;;;16.60;23.90;;;;;;4994819;28;20414;-85
2021/05/13 09:45:02;;;;;;;5.53;4.60;;;16.40;29.60;;;;;;4994663;28;20564;-83
2021/05/13 09:47:28;;;;;;;7.27;4.60;;;16.20;33.00;;;;;;4996678;28;20190;-84
2021/05/13 09:50:14;;;;;;;5.77;5.10;;;16.10;48.20;;;;;;4993252;28;20414;-86
2021/05/13 09:52:47;;;;;;;5.90;4.60;;;16.10;65.90;;;;;;4993405;28;20230;-83
2021/05/13 09:55:25;;;;;;;7.77;3.80;;;16.20;82.00;;;;;;4993852;28;20518;-84
2021/05/13 09:57:53;;;;;;;5.10;4.40;;;16.20;61.30;;;;;;4994398;28;20416;-84
2021/05/13 10:00:37;;;;;;;6.10;4.10;;;16.10;65.80;;;;;;4994000;28;20444;-85
2021/05/13 10:03:07;;;;;;;5.27;3.67;;;16.00;64.00;;;;;;4995649;28;20506;-83
2021/05/13 10:05:33;;;;;;;7.13;4.53;;;15.90;73.40;;;;;;4996742;28;20470;-84
2021/05/13 10:07:59;;;;;;;6.67;3.97;;;15.90;79.40;;;;;;4994113;28;20532;-87
2021/05/13 10:10:24;;;;;;;5.37;4.43;;;15.90;91.00;;;;;;4993820;28;20176;-83
2021/05/13 10:12:53;;;;;;;7.17;4.77;;;15.90;93.70;;;;;;4994012;28;20227;-85
2021/05/13 10:15:19;;;;;;;4.70;4.20;;;15.80;99.90;;;;;;4994129;28;20171;-86
2021/05/13 10:17:46;;;;;;;5.37;4.57;;;15.80;99.90;;;;;;5004286;28;20859;-83
2021/05/13 10:20:19;;;;;;;4.90;3.80;;;15.80;98.40;;;;;;4993724;28;20193;-84
2021/05/13 10:22:46;;;;;;;5.77;4.27;;;15.60;97.40;;;;;;4994032;28;20409;-86
2021/05/13 10:25:29;;;;;;;5.97;4.07;;;15.40;97.80;;;;;;4993365;28;20764;-83
2021/05/13 10:28:00;;;;;;;7.20;4.70;;;15.40;99.90;;;;;;4991462;28;20426;-83
2021/05/13 10:30:30;;;;;;;6.00;4.57;;;15.50;99.90;;;;;;4995281;28;20397;-87
2021/05/13 10:33:14;;;;;;;6.43;4.93;;;15.70;99.90;;;;;;4996906;28;20489;-86
2021/05/13 10:35:59;;;;;;;7.90;5.10;;;15.80;99.90;;;;;;4996365;28;20877;-84
2021/05/13 10:38:39;;;;;;;4.87;3.77;;;15.80;99.90;;;;;;4996462;28;20746;-83
2021/05/13 10:41:33;;;;;;;5.97;3.30;;;15.90;85.10;;;;;;4988459;28;20419;-85
2021/05/13 10:44:05;;;;;;;5.07;3.50;;;15.90;74.00;;;;;;4991797;28;20417;-85
2021/05/13 10:46:31;;;;;;;7.20;3.83;;;16.10;80.70;;;;;;4993657;28;20469;-83
2021/05/13 10:49:18;;;;;;;6.40;3.27;;;16.20;74.00;;;;;;4996929;28;20419;-83
2021/05/13 10:51:44;;;;;;;6.00;3.73;;;16.50;59.30;;;;;;4998396;28;20610;-84
2021/05/13 10:54:30;;;;;;;7.30;4.30;;;16.70;45.40;;;;;;4996481;28;20533;-86
2021/05/13 10:57:17;;;;;;;6.40;3.77;;;16.70;27.90;;;;;;5012587;28;20407;-86
2021/05/13 11:00:02;;;;;;;6.90;4.30;;;16.80;41.20;;;;;;4993311;28;20419;-85
2021/05/13 11:02:40;;;;;;;4.43;3.17;;;17.20;34.70;;;;;;4991679;28;20550;-83
2021/05/13 11:05:42;;;;;;;4.20;3.80;;;17.40;26.60;;;;;;4991000;28;20418;-85
2021/05/13 11:08:08;;;;;;;5.93;3.80;;;17.50;11.60;;;;;;4991181;28;20425;-84
2021/05/13 11:11:02;;;;;;;4.33;3.00;;;17.50;2.30;;;;;;4991458;28;21101;-85
2021/05/13 11:13:50;;;;;;;5.20;4.20;;;17.50;18.30;;;;;;4990468;28;20274;-84
2021/05/13 11:16:41;;;;;;;7.40;4.27;;;17.60;26.50;;;;;;4991274;28;20426;-83
2021/05/13 11:19:21;;;;;;;7.20;4.80;;;17.60;26.10;;;;;;4991193;28;20882;-84
2021/05/13 11:21:59;;;;;;;5.80;4.27;;;17.60;10.60;;;;;;4991922;28;20411;-86
2021/05/13 11:24:34;;;;;;;6.33;4.60;;;17.80;26.10;;;;;;4990086;28;20417;-84
2021/05/13 11:27:00;;;;;;;7.50;5.00;;;17.90;15.70;;;;;;4990043;28;20545;-84
2021/05/13 11:29:25;;;;;;;7.90;5.63;;;17.70;3.90;;;;;;4990711;28;20591;-85
2021/05/13 11:31:52;;;;;;;8.23;5.20;;;17.60;13.50;;;;;;4993311;28;20230;-85
2021/05/13 11:34:21;;;;;;;8.60;6.53;;;17.80;24.20;;;;;;4991587;28;20165;-85
2021/05/13 11:36:47;;;;;;;7.20;5.10;;;18.10;20.00;;;;;;4991673;28;20509;-84
2021/05/13 11:39:17;;;;;;;6.10;5.40;;;18.30;1.00;;;;;;4994131;28;20485;-84
2021/05/13 11:41:45;;;;;;;6.07;5.13;;;18.50;1.00;;;;;;5002779;28;20416;-87
2021/05/13 11:44:12;;;;;;;6.40;5.20;;;18.40;1.00;;;;;;5003785;28;20417;-85
2021/05/13 11:46:38;;;;;;;8.27;5.67;;;18.20;1.00;;;;;;5000083;28;20513;-84
2021/05/13 11:49:06;;;;;;;6.20;4.57;;;18.00;1.00;;;;;;4995440;28;20507;-83
2021/05/13 11:51:34;;;;;;;7.60;5.10;;;18.10;1.00;;;;;;4990712;28;20515;-85
2021/05/13 11:54:05;;;;;;;6.73;4.97;;;17.90;1.00;;;;;;4991277;28;20479;-85
2021/05/13 11:56:35;;;;;;;8.00;4.60;;;17.90;1.00;;;;;;4991843;28;20438;-84
2021/05/13 11:59:02;;;;;;;6.33;5.00;;;17.80;1.00;;;;;;5004322;28;20415;-85
2021/05/13 12:01:29;;;;;;;11.50;5.30;;;17.60;6.90;;;;;;4991873;28;20769;-84
2021/05/13 12:04:03;;;;;;;10.67;6.07;;;17.60;35.80;;;;;;4990533;28;20443;-84
2021/05/13 12:06:39;;;;;;;4.87;4.20;;;17.60;22.80;;;;;;4995669;28;20470;-85
2021/05/13 12:09:05;;;;;;;5.27;4.10;;;17.50;23.50;;;;;;5006516;28;20431;-85
2021/05/13 12:11:31;;;;;;;6.00;4.80;;;17.50;7.70;;;;;;4995439;28;20433;-84
2021/05/13 12:13:58;;;;;;;8.00;5.60;;;17.30;1.00;;;;;;4995332;28;20780;-84
2021/05/13 12:16:28;;;;;;;7.40;5.03;;;17.20;1.00;;;;;;4995143;28;20449;-86
2021/05/13 12:19:02;;;;;;;8.20;4.47;;;16.80;13.30;;;;;;4995429;28;20427;-84
2021/05/13 12:21:28;;;;;;;7.50;4.97;;;16.70;37.40;;;;;;4996403;28;20425;-84
2021/05/13 12:23:54;;;;;;;8.20;4.77;;;16.70;33.00;;;;;;4994795;28;20417;-85
2021/05/13 12:26:28;;;;;;;4.90;3.90;;;16.40;48.50;;;;;;4995125;28;20465;-84
2021/05/13 12:28:55;;;;;;;6.67;4.43;;;16.30;67.70;;;;;;4994249;28;20447;-83
2021/05/13 12:31:25;;;;;;;4.87;4.30;;;16.30;47.70;;;;;;4995081;28;20960;-83
2021/05/13 12:33:50;;;;;;;5.20;3.80;;;16.20;56.10;;;;;;4994520;28;20992;-84
2021/05/13 12:36:16;;;;;;;4.87;3.30;;;16.20;54.60;;;;;;4997036;28;20537;-86
2021/05/13 12:38:43;;;;;;;4.60;3.70;;;16.20;69.80;;;;;;4996016;28;20671;-83
2021/05/13 12:41:14;;;;;;;4.30;3.30;;;16.20;61.10;;;;;;4993958;28;20292;-84
2021/05/13 12:43:40;;;;;;;3.60;2.13;;;16.10;55.90;;;;;;4994140;28;20860;-84
2021/05/13 12:46:23;;;;;;;4.37;3.30;;;16.00;63.00;;;;;;4993984;28;20473;-85
2021/05/13 12:48:51;;;;;;;4.83;4.17;;;15.90;85.00;;;;;;4992608;28;20273;-84
2021/05/13 12:51:25;;;;;;;5.67;4.20;;;15.90;90.90;;;;;;4996537;28;20428;-86